sensor_id;sensor_type;location;lat;lon;timestamp;P1;durP1;ratioP1;P2;durP2;ratioP2
6442;SDS011;3254;47.372;8.512;2024-02-16T00:00:43;10.20;;;6.70;;
6442;SDS011;3254;47.372;8.512;2024-02-16T00:03:09;12.70;;;5.83;;
6442;SDS011;3254;47.372;8.512;2024-02-16T00:05:35;7.70;;;5.93;;
6442;SDS011;3254;47.372;8.512;2024-02-16T00:08:01;9.03;;;5.23;;
6442;SDS011;3254;47.372;8.512;2024-02-16T00:10:28;7.20;;;5.80;;
6442;SDS011;3254;47.372;8.512;2024-02-16T00:12:53;5.40;;;4.90;;
6442;SDS011;3254;47.372;8.512;2024-02-16T00:15:19;10.40;;;6.17;;
6442;SDS011;3254;47.372;8.512;2024-02-16T00:17:44;10.80;;;6.10;;
6442;SDS011;3254;47.372;8.512;2024-02-16T00:20:09;11.50;;;6.00;;
6442;SDS011;3254;47.372;8.512;2024-02-16T00:22:37;7.50;;;6.20;;
6442;SDS011;3254;47.372;8.512;2024-02-16T00:25:03;5.33;;;4.90;;
6442;SDS011;3254;47.372;8.512;2024-02-16T00:27:29;6.67;;;5.47;;
6442;SDS011;3254;47.372;8.512;2024-02-16T00:29:54;19.60;;;6.30;;
6442;SDS011;3254;47.372;8.512;2024-02-16T00:32:19;6.73;;;5.27;;
6442;SDS011;3254;47.372;8.512;2024-02-16T00:34:45;6.60;;;5.97;;
6442;SDS011;3254;47.372;8.512;2024-02-16T00:37:10;10.40;;;5.50;;
6442;SDS011;3254;47.372;8.512;2024-02-16T00:39:37;5.50;;;5.00;;
6442;SDS011;3254;47.372;8.512;2024-02-16T00:42:05;8.57;;;4.73;;
6442;SDS011;3254;47.372;8.512;2024-02-16T00:44:30;8.47;;;5.63;;
6442;SDS011;3254;47.372;8.512;2024-02-16T00:46:56;6.10;;;5.43;;
6442;SDS011;3254;47.372;8.512;2024-02-16T00:49:21;12.00;;;5.33;;
6442;SDS011;3254;47.372;8.512;2024-02-16T00:51:47;15.90;;;6.27;;
6442;SDS011;3254;47.372;8.512;2024-02-16T00:54:12;5.90;;;5.40;;
6442;SDS011;3254;47.372;8.512;2024-02-16T00:56:38;6.00;;;5.43;;
6442;SDS011;3254;47.372;8.512;2024-02-16T00:59:03;10.03;;;6.67;;
6442;SDS011;3254;47.372;8.512;2024-02-16T01:01:29;9.50;;;6.83;;
6442;SDS011;3254;47.372;8.512;2024-02-16T01:03:54;13.93;;;5.80;;
6442;SDS011;3254;47.372;8.512;2024-02-16T01:06:20;10.23;;;6.20;;
6442;SDS011;3254;47.372;8.512;2024-02-16T01:08:45;10.70;;;8.13;;
6442;SDS011;3254;47.372;8.512;2024-02-16T01:11:14;7.03;;;5.93;;
6442;SDS011;3254;47.372;8.512;2024-02-16T01:13:39;7.70;;;6.33;;
6442;SDS011;3254;47.372;8.512;2024-02-16T01:16:05;13.63;;;7.33;;
6442;SDS011;3254;47.372;8.512;2024-02-16T01:18:31;6.93;;;5.93;;
6442;SDS011;3254;47.372;8.512;2024-02-16T01:20:57;12.07;;;6.97;;
6442;SDS011;3254;47.372;8.512;2024-02-16T01:23:23;8.93;;;5.70;;
6442;SDS011;3254;47.372;8.512;2024-02-16T01:25:48;7.10;;;6.23;;
6442;SDS011;3254;47.372;8.512;2024-02-16T01:28:14;8.40;;;6.70;;
6442;SDS011;3254;47.372;8.512;2024-02-16T01:30:39;7.50;;;6.60;;
6442;SDS011;3254;47.372;8.512;2024-02-16T01:33:05;8.17;;;6.40;;
6442;SDS011;3254;47.372;8.512;2024-02-16T01:35:32;8.00;;;6.90;;
6442;SDS011;3254;47.372;8.512;2024-02-16T01:37:57;9.03;;;6.87;;
6442;SDS011;3254;47.372;8.512;2024-02-16T01:40:23;8.63;;;6.93;;
6442;SDS011;3254;47.372;8.512;2024-02-16T01:42:51;8.60;;;7.00;;
6442;SDS011;3254;47.372;8.512;2024-02-16T01:45:17;9.23;;;7.13;;
6442;SDS011;3254;47.372;8.512;2024-02-16T01:47:43;7.80;;;6.50;;
6442;SDS011;3254;47.372;8.512;2024-02-16T01:50:09;12.63;;;7.13;;
6442;SDS011;3254;47.372;8.512;2024-02-16T01:52:34;8.40;;;7.03;;
6442;SDS011;3254;47.372;8.512;2024-02-16T01:55:01;8.27;;;7.37;;
6442;SDS011;3254;47.372;8.512;2024-02-16T01:57:33;13.07;;;8.13;;
6442;SDS011;3254;47.372;8.512;2024-02-16T01:59:58;10.43;;;8.10;;
6442;SDS011;3254;47.372;8.512;2024-02-16T02:02:24;11.53;;;6.87;;
6442;SDS011;3254;47.372;8.512;2024-02-16T02:04:49;14.47;;;8.70;;
6442;SDS011;3254;47.372;8.512;2024-02-16T02:07:15;8.90;;;6.93;;
6442;SDS011;3254;47.372;8.512;2024-02-16T02:09:41;10.00;;;6.40;;
6442;SDS011;3254;47.372;8.512;2024-02-16T02:12:07;7.27;;;6.53;;
6442;SDS011;3254;47.372;8.512;2024-02-16T02:14:33;12.10;;;7.17;;
6442;SDS011;3254;47.372;8.512;2024-02-16T02:16:59;10.80;;;6.30;;
6442;SDS011;3254;47.372;8.512;2024-02-16T02:19:24;13.07;;;6.10;;
6442;SDS011;3254;47.372;8.512;2024-02-16T02:21:49;7.33;;;6.60;;
6442;SDS011;3254;47.372;8.512;2024-02-16T02:24:15;8.30;;;6.47;;
6442;SDS011;3254;47.372;8.512;2024-02-16T02:26:41;8.07;;;6.80;;
6442;SDS011;3254;47.372;8.512;2024-02-16T02:29:06;8.60;;;6.30;;
6442;SDS011;3254;47.372;8.512;2024-02-16T02:31:32;7.27;;;6.10;;
6442;SDS011;3254;47.372;8.512;2024-02-16T02:33:57;8.60;;;5.80;;
6442;SDS011;3254;47.372;8.512;2024-02-16T02:36:23;6.43;;;5.43;;
6442;SDS011;3254;47.372;8.512;2024-02-16T02:38:48;15.23;;;6.80;;
6442;SDS011;3254;47.372;8.512;2024-02-16T02:41:13;11.40;;;6.47;;
6442;SDS011;3254;47.372;8.512;2024-02-16T02:43:41;11.63;;;6.23;;
6442;SDS011;3254;47.372;8.512;2024-02-16T02:46:07;9.37;;;6.43;;
6442;SDS011;3254;47.372;8.512;2024-02-16T02:48:32;10.87;;;6.30;;
6442;SDS011;3254;47.372;8.512;2024-02-16T02:50:58;8.30;;;6.50;;
6442;SDS011;3254;47.372;8.512;2024-02-16T02:53:26;6.30;;;5.80;;
6442;SDS011;3254;47.372;8.512;2024-02-16T02:55:53;6.87;;;6.13;;
6442;SDS011;3254;47.372;8.512;2024-02-16T02:58:18;10.00;;;7.67;;
6442;SDS011;3254;47.372;8.512;2024-02-16T03:00:44;9.37;;;7.20;;
6442;SDS011;3254;47.372;8.512;2024-02-16T03:03:09;8.30;;;6.47;;
6442;SDS011;3254;47.372;8.512;2024-02-16T03:05:35;8.93;;;7.10;;
6442;SDS011;3254;47.372;8.512;2024-02-16T03:08:00;9.47;;;7.03;;
6442;SDS011;3254;47.372;8.512;2024-02-16T03:10:26;11.30;;;7.80;;
6442;SDS011;3254;47.372;8.512;2024-02-16T03:12:56;10.67;;;7.17;;
6442;SDS011;3254;47.372;8.512;2024-02-16T03:15:21;13.90;;;7.17;;
6442;SDS011;3254;47.372;8.512;2024-02-16T03:17:46;11.73;;;7.40;;
6442;SDS011;3254;47.372;8.512;2024-02-16T03:20:13;8.50;;;7.67;;
6442;SDS011;3254;47.372;8.512;2024-02-16T03:22:38;9.20;;;7.40;;
6442;SDS011;3254;47.372;8.512;2024-02-16T03:25:04;12.13;;;7.37;;
6442;SDS011;3254;47.372;8.512;2024-02-16T03:27:30;12.70;;;7.70;;
6442;SDS011;3254;47.372;8.512;2024-02-16T03:29:55;11.10;;;7.70;;
6442;SDS011;3254;47.372;8.512;2024-02-16T03:32:20;9.33;;;7.40;;
6442;SDS011;3254;47.372;8.512;2024-02-16T03:34:46;7.37;;;6.77;;
6442;SDS011;3254;47.372;8.512;2024-02-16T03:37:11;7.50;;;6.10;;
6442;SDS011;3254;47.372;8.512;2024-02-16T03:39:37;9.63;;;7.00;;
6442;SDS011;3254;47.372;8.512;2024-02-16T03:42:02;10.97;;;7.30;;
6442;SDS011;3254;47.372;8.512;2024-02-16T03:44:28;8.10;;;6.67;;
6442;SDS011;3254;47.372;8.512;2024-02-16T03:46:53;8.10;;;6.57;;
6442;SDS011;3254;47.372;8.512;2024-02-16T03:49:19;9.47;;;7.20;;
6442;SDS011;3254;47.372;8.512;2024-02-16T03:51:44;10.47;;;7.33;;
6442;SDS011;3254;47.372;8.512;2024-02-16T03:54:10;7.90;;;7.10;;
6442;SDS011;3254;47.372;8.512;2024-02-16T03:56:36;9.47;;;7.87;;
6442;SDS011;3254;47.372;8.512;2024-02-16T03:59:01;18.27;;;7.20;;
6442;SDS011;3254;47.372;8.512;2024-02-16T04:01:28;8.60;;;6.30;;
6442;SDS011;3254;47.372;8.512;2024-02-16T04:03:55;7.47;;;6.77;;
6442;SDS011;3254;47.372;8.512;2024-02-16T04:06:20;11.13;;;6.87;;
6442;SDS011;3254;47.372;8.512;2024-02-16T04:08:46;11.80;;;6.63;;
6442;SDS011;3254;47.372;8.512;2024-02-16T04:11:11;7.33;;;6.73;;
6442;SDS011;3254;47.372;8.512;2024-02-16T04:13:38;6.60;;;6.00;;
6442;SDS011;3254;47.372;8.512;2024-02-16T04:16:03;13.83;;;6.13;;
6442;SDS011;3254;47.372;8.512;2024-02-16T04:18:29;10.73;;;5.90;;
6442;SDS011;3254;47.372;8.512;2024-02-16T04:20:54;13.87;;;6.13;;
6442;SDS011;3254;47.372;8.512;2024-02-16T04:23:19;7.27;;;5.90;;
6442;SDS011;3254;47.372;8.512;2024-02-16T04:25:45;10.00;;;6.07;;
6442;SDS011;3254;47.372;8.512;2024-02-16T04:28:10;7.03;;;6.33;;
6442;SDS011;3254;47.372;8.512;2024-02-16T04:30:35;7.27;;;5.73;;
6442;SDS011;3254;47.372;8.512;2024-02-16T04:33:01;6.70;;;6.10;;
6442;SDS011;3254;47.372;8.512;2024-02-16T04:35:26;11.93;;;6.20;;
6442;SDS011;3254;47.372;8.512;2024-02-16T04:37:52;9.30;;;5.97;;
6442;SDS011;3254;47.372;8.512;2024-02-16T04:40:17;6.67;;;5.40;;
6442;SDS011;3254;47.372;8.512;2024-02-16T04:42:42;7.23;;;6.20;;
6442;SDS011;3254;47.372;8.512;2024-02-16T04:45:11;7.23;;;6.37;;
6442;SDS011;3254;47.372;8.512;2024-02-16T04:47:36;6.60;;;6.00;;
6442;SDS011;3254;47.372;8.512;2024-02-16T04:50:02;6.90;;;6.10;;
6442;SDS011;3254;47.372;8.512;2024-02-16T04:52:28;11.23;;;6.50;;
6442;SDS011;3254;47.372;8.512;2024-02-16T04:54:53;8.93;;;6.87;;
6442;SDS011;3254;47.372;8.512;2024-02-16T04:57:19;7.37;;;6.60;;
6442;SDS011;3254;47.372;8.512;2024-02-16T04:59:44;9.57;;;7.00;;
6442;SDS011;3254;47.372;8.512;2024-02-16T05:02:09;8.20;;;7.40;;
6442;SDS011;3254;47.372;8.512;2024-02-16T05:04:35;7.80;;;6.90;;
6442;SDS011;3254;47.372;8.512;2024-02-16T05:07:00;9.63;;;7.07;;
6442;SDS011;3254;47.372;8.512;2024-02-16T05:09:26;8.80;;;7.63;;
6442;SDS011;3254;47.372;8.512;2024-02-16T05:11:51;9.60;;;7.60;;
6442;SDS011;3254;47.372;8.512;2024-02-16T05:14:17;8.57;;;7.07;;
6442;SDS011;3254;47.372;8.512;2024-02-16T05:16:46;8.93;;;7.27;;
6442;SDS011;3254;47.372;8.512;2024-02-16T05:19:12;11.43;;;8.10;;
6442;SDS011;3254;47.372;8.512;2024-02-16T05:21:37;10.53;;;6.73;;
6442;SDS011;3254;47.372;8.512;2024-02-16T05:24:03;9.50;;;7.70;;
6442;SDS011;3254;47.372;8.512;2024-02-16T05:26:29;11.20;;;7.87;;
6442;SDS011;3254;47.372;8.512;2024-02-16T05:28:54;11.40;;;6.90;;
6442;SDS011;3254;47.372;8.512;2024-02-16T05:31:19;7.87;;;7.07;;
6442;SDS011;3254;47.372;8.512;2024-02-16T05:33:47;11.93;;;8.17;;
6442;SDS011;3254;47.372;8.512;2024-02-16T05:36:16;7.77;;;7.07;;
6442;SDS011;3254;47.372;8.512;2024-02-16T05:38:48;8.23;;;7.43;;
6442;SDS011;3254;47.372;8.512;2024-02-16T05:41:15;8.53;;;7.50;;
6442;SDS011;3254;47.372;8.512;2024-02-16T05:43:42;7.73;;;7.00;;
6442;SDS011;3254;47.372;8.512;2024-02-16T05:46:12;10.80;;;7.07;;
6442;SDS011;3254;47.372;8.512;2024-02-16T05:48:38;8.57;;;7.40;;
6442;SDS011;3254;47.372;8.512;2024-02-16T05:51:05;9.00;;;7.73;;
6442;SDS011;3254;47.372;8.512;2024-02-16T05:53:33;15.13;;;8.17;;
6442;SDS011;3254;47.372;8.512;2024-02-16T05:55:59;9.77;;;7.80;;
6442;SDS011;3254;47.372;8.512;2024-02-16T05:58:25;10.47;;;7.33;;
6442;SDS011;3254;47.372;8.512;2024-02-16T06:00:50;10.47;;;7.03;;
6442;SDS011;3254;47.372;8.512;2024-02-16T06:03:15;13.50;;;7.67;;
6442;SDS011;3254;47.372;8.512;2024-02-16T06:05:41;8.50;;;7.60;;
6442;SDS011;3254;47.372;8.512;2024-02-16T06:08:09;17.20;;;7.67;;
6442;SDS011;3254;47.372;8.512;2024-02-16T06:10:35;11.33;;;7.13;;
6442;SDS011;3254;47.372;8.512;2024-02-16T06:13:00;7.40;;;6.80;;
6442;SDS011;3254;47.372;8.512;2024-02-16T06:15:25;9.30;;;7.33;;
6442;SDS011;3254;47.372;8.512;2024-02-16T06:17:51;13.83;;;7.30;;
6442;SDS011;3254;47.372;8.512;2024-02-16T06:20:17;10.87;;;7.53;;
6442;SDS011;3254;47.372;8.512;2024-02-16T06:22:42;9.67;;;7.70;;
6442;SDS011;3254;47.372;8.512;2024-02-16T06:25:08;14.93;;;8.47;;
6442;SDS011;3254;47.372;8.512;2024-02-16T06:27:33;14.47;;;7.73;;
6442;SDS011;3254;47.372;8.512;2024-02-16T06:29:59;16.73;;;8.97;;
6442;SDS011;3254;47.372;8.512;2024-02-16T06:32:24;8.13;;;7.07;;
6442;SDS011;3254;47.372;8.512;2024-02-16T06:34:50;8.63;;;7.40;;
6442;SDS011;3254;47.372;8.512;2024-02-16T06:37:15;12.37;;;7.40;;
6442;SDS011;3254;47.372;8.512;2024-02-16T06:39:40;7.87;;;7.17;;
6442;SDS011;3254;47.372;8.512;2024-02-16T06:42:06;9.70;;;7.00;;
6442;SDS011;3254;47.372;8.512;2024-02-16T06:44:31;12.60;;;7.30;;
6442;SDS011;3254;47.372;8.512;2024-02-16T06:46:58;11.07;;;7.30;;
6442;SDS011;3254;47.372;8.512;2024-02-16T06:49:23;10.50;;;7.90;;
6442;SDS011;3254;47.372;8.512;2024-02-16T06:51:49;14.33;;;8.40;;
6442;SDS011;3254;47.372;8.512;2024-02-16T06:54:14;8.03;;;7.23;;
6442;SDS011;3254;47.372;8.512;2024-02-16T06:56:40;11.40;;;7.80;;
6442;SDS011;3254;47.372;8.512;2024-02-16T06:59:06;31.20;;;14.97;;
6442;SDS011;3254;47.372;8.512;2024-02-16T07:01:31;24.63;;;11.50;;
6442;SDS011;3254;47.372;8.512;2024-02-16T07:03:57;18.90;;;10.13;;
6442;SDS011;3254;47.372;8.512;2024-02-16T07:06:22;21.93;;;11.37;;
6442;SDS011;3254;47.372;8.512;2024-02-16T07:08:47;60.87;;;16.33;;
6442;SDS011;3254;47.372;8.512;2024-02-16T07:11:13;15.53;;;8.70;;
6442;SDS011;3254;47.372;8.512;2024-02-16T07:13:41;46.33;;;14.50;;
6442;SDS011;3254;47.372;8.512;2024-02-16T07:16:09;24.70;;;8.70;;
6442;SDS011;3254;47.372;8.512;2024-02-16T07:18:35;17.63;;;9.03;;
6442;SDS011;3254;47.372;8.512;2024-02-16T07:21:01;15.50;;;8.63;;
6442;SDS011;3254;47.372;8.512;2024-02-16T07:23:27;9.73;;;7.30;;
6442;SDS011;3254;47.372;8.512;2024-02-16T07:25:52;28.40;;;8.30;;
6442;SDS011;3254;47.372;8.512;2024-02-16T07:28:23;22.50;;;8.33;;
6442;SDS011;3254;47.372;8.512;2024-02-16T07:30:48;12.80;;;7.67;;
6442;SDS011;3254;47.372;8.512;2024-02-16T07:33:14;12.07;;;7.43;;
6442;SDS011;3254;47.372;8.512;2024-02-16T07:35:40;18.33;;;7.40;;
6442;SDS011;3254;47.372;8.512;2024-02-16T07:38:05;8.20;;;7.27;;
6442;SDS011;3254;47.372;8.512;2024-02-16T07:40:30;11.83;;;8.17;;
6442;SDS011;3254;47.372;8.512;2024-02-16T07:42:56;11.73;;;7.47;;
6442;SDS011;3254;47.372;8.512;2024-02-16T07:45:22;15.87;;;8.57;;
6442;SDS011;3254;47.372;8.512;2024-02-16T07:47:47;15.90;;;9.17;;
6442;SDS011;3254;47.372;8.512;2024-02-16T07:50:13;15.33;;;8.03;;
6442;SDS011;3254;47.372;8.512;2024-02-16T07:52:38;10.57;;;7.23;;
6442;SDS011;3254;47.372;8.512;2024-02-16T07:55:05;19.97;;;8.23;;
6442;SDS011;3254;47.372;8.512;2024-02-16T07:57:31;14.73;;;8.40;;
6442;SDS011;3254;47.372;8.512;2024-02-16T07:59:56;14.67;;;8.63;;
6442;SDS011;3254;47.372;8.512;2024-02-16T08:02:21;13.57;;;8.50;;
6442;SDS011;3254;47.372;8.512;2024-02-16T08:04:47;13.40;;;7.67;;
6442;SDS011;3254;47.372;8.512;2024-02-16T08:07:13;9.63;;;7.03;;
6442;SDS011;3254;47.372;8.512;2024-02-16T08:09:39;14.37;;;8.50;;
6442;SDS011;3254;47.372;8.512;2024-02-16T08:12:04;16.97;;;8.80;;
6442;SDS011;3254;47.372;8.512;2024-02-16T08:14:32;19.73;;;8.40;;
6442;SDS011;3254;47.372;8.512;2024-02-16T08:16:58;20.73;;;9.47;;
6442;SDS011;3254;47.372;8.512;2024-02-16T08:19:23;13.53;;;8.17;;
6442;SDS011;3254;47.372;8.512;2024-02-16T08:21:57;16.03;;;8.33;;
6442;SDS011;3254;47.372;8.512;2024-02-16T08:24:22;14.70;;;8.00;;
6442;SDS011;3254;47.372;8.512;2024-02-16T08:26:47;10.20;;;7.77;;
6442;SDS011;3254;47.372;8.512;2024-02-16T08:29:13;43.37;;;9.33;;
6442;SDS011;3254;47.372;8.512;2024-02-16T08:31:38;23.23;;;7.90;;
6442;SDS011;3254;47.372;8.512;2024-02-16T08:34:04;10.43;;;7.60;;
6442;SDS011;3254;47.372;8.512;2024-02-16T08:36:32;13.40;;;7.27;;
6442;SDS011;3254;47.372;8.512;2024-02-16T08:38:57;8.83;;;7.23;;
6442;SDS011;3254;47.372;8.512;2024-02-16T08:41:22;10.80;;;7.43;;
6442;SDS011;3254;47.372;8.512;2024-02-16T08:43:49;11.10;;;6.90;;
6442;SDS011;3254;47.372;8.512;2024-02-16T08:46:15;7.53;;;6.33;;
6442;SDS011;3254;47.372;8.512;2024-02-16T08:48:41;10.40;;;7.00;;
6442;SDS011;3254;47.372;8.512;2024-02-16T08:51:06;10.70;;;7.00;;
6442;SDS011;3254;47.372;8.512;2024-02-16T08:53:31;13.77;;;7.00;;
6442;SDS011;3254;47.372;8.512;2024-02-16T08:55:57;13.33;;;7.40;;
6442;SDS011;3254;47.372;8.512;2024-02-16T08:58:22;10.70;;;7.53;;
6442;SDS011;3254;47.372;8.512;2024-02-16T09:00:48;9.50;;;6.67;;
6442;SDS011;3254;47.372;8.512;2024-02-16T09:03:14;9.13;;;7.20;;
6442;SDS011;3254;47.372;8.512;2024-02-16T09:05:41;13.90;;;7.53;;
6442;SDS011;3254;47.372;8.512;2024-02-16T09:08:08;12.93;;;6.90;;
6442;SDS011;3254;47.372;8.512;2024-02-16T09:10:34;8.40;;;6.40;;
6442;SDS011;3254;47.372;8.512;2024-02-16T09:12:59;18.33;;;7.10;;
6442;SDS011;3254;47.372;8.512;2024-02-16T09:15:25;15.50;;;6.10;;
6442;SDS011;3254;47.372;8.512;2024-02-16T09:17:50;14.10;;;6.37;;
6442;SDS011;3254;47.372;8.512;2024-02-16T09:20:16;8.40;;;5.90;;
6442;SDS011;3254;47.372;8.512;2024-02-16T09:22:47;20.70;;;6.50;;
6442;SDS011;3254;47.372;8.512;2024-02-16T09:25:13;11.70;;;6.50;;
6442;SDS011;3254;47.372;8.512;2024-02-16T09:27:39;13.27;;;7.10;;
6442;SDS011;3254;47.372;8.512;2024-02-16T09:30:06;9.43;;;6.50;;
6442;SDS011;3254;47.372;8.512;2024-02-16T09:32:32;5.67;;;5.17;;
6442;SDS011;3254;47.372;8.512;2024-02-16T09:34:57;6.97;;;5.73;;
6442;SDS011;3254;47.372;8.512;2024-02-16T09:37:23;8.40;;;5.10;;
6442;SDS011;3254;47.372;8.512;2024-02-16T09:39:48;10.30;;;5.30;;
6442;SDS011;3254;47.372;8.512;2024-02-16T09:42:13;4.30;;;4.00;;
6442;SDS011;3254;47.372;8.512;2024-02-16T09:44:39;11.37;;;5.10;;
6442;SDS011;3254;47.372;8.512;2024-02-16T09:47:05;5.93;;;4.67;;
6442;SDS011;3254;47.372;8.512;2024-02-16T09:49:32;4.57;;;4.20;;
6442;SDS011;3254;47.372;8.512;2024-02-16T09:51:59;12.17;;;5.33;;
6442;SDS011;3254;47.372;8.512;2024-02-16T09:54:29;9.00;;;4.57;;
6442;SDS011;3254;47.372;8.512;2024-02-16T09:56:56;5.13;;;4.73;;
6442;SDS011;3254;47.372;8.512;2024-02-16T09:59:22;4.60;;;4.30;;
6442;SDS011;3254;47.372;8.512;2024-02-16T10:01:47;6.07;;;4.53;;
6442;SDS011;3254;47.372;8.512;2024-02-16T10:04:12;9.13;;;4.83;;
6442;SDS011;3254;47.372;8.512;2024-02-16T10:06:47;8.23;;;5.33;;
6442;SDS011;3254;47.372;8.512;2024-02-16T10:09:21;6.80;;;5.10;;
6442;SDS011;3254;47.372;8.512;2024-02-16T10:11:50;10.67;;;5.83;;
6442;SDS011;3254;47.372;8.512;2024-02-16T10:14:16;5.57;;;4.97;;
6442;SDS011;3254;47.372;8.512;2024-02-16T10:16:42;13.93;;;5.30;;
6442;SDS011;3254;47.372;8.512;2024-02-16T10:19:08;9.00;;;5.87;;
6442;SDS011;3254;47.372;8.512;2024-02-16T10:21:36;7.93;;;5.57;;
6442;SDS011;3254;47.372;8.512;2024-02-16T10:24:04;7.30;;;6.00;;
6442;SDS011;3254;47.372;8.512;2024-02-16T10:26:39;14.43;;;6.80;;
6442;SDS011;3254;47.372;8.512;2024-02-16T10:29:06;8.53;;;6.80;;
6442;SDS011;3254;47.372;8.512;2024-02-16T10:31:35;17.93;;;7.07;;
6442;SDS011;3254;47.372;8.512;2024-02-16T10:34:01;12.23;;;6.73;;
6442;SDS011;3254;47.372;8.512;2024-02-16T10:36:30;13.40;;;6.70;;
6442;SDS011;3254;47.372;8.512;2024-02-16T10:39:00;31.37;;;7.70;;
6442;SDS011;3254;47.372;8.512;2024-02-16T10:41:33;20.37;;;7.47;;
6442;SDS011;3254;47.372;8.512;2024-02-16T10:44:00;16.40;;;7.83;;
6442;SDS011;3254;47.372;8.512;2024-02-16T10:46:26;12.33;;;7.23;;
6442;SDS011;3254;47.372;8.512;2024-02-16T10:48:52;23.90;;;6.90;;
6442;SDS011;3254;47.372;8.512;2024-02-16T10:51:20;15.73;;;7.13;;
6442;SDS011;3254;47.372;8.512;2024-02-16T10:53:48;24.93;;;8.50;;
6442;SDS011;3254;47.372;8.512;2024-02-16T10:56:16;14.87;;;6.40;;
6442;SDS011;3254;47.372;8.512;2024-02-16T10:58:42;7.47;;;6.10;;
6442;SDS011;3254;47.372;8.512;2024-02-16T11:01:10;7.87;;;6.60;;
6442;SDS011;3254;47.372;8.512;2024-02-16T11:03:38;8.57;;;5.67;;
6442;SDS011;3254;47.372;8.512;2024-02-16T11:06:14;13.57;;;6.00;;
6442;SDS011;3254;47.372;8.512;2024-02-16T11:08:41;7.60;;;6.00;;
6442;SDS011;3254;47.372;8.512;2024-02-16T11:11:06;8.70;;;5.33;;
6442;SDS011;3254;47.372;8.512;2024-02-16T11:13:35;6.87;;;3.50;;
6442;SDS011;3254;47.372;8.512;2024-02-16T11:16:02;17.07;;;3.77;;
6442;SDS011;3254;47.372;8.512;2024-02-16T11:18:37;3.00;;;2.80;;
6442;SDS011;3254;47.372;8.512;2024-02-16T11:21:04;3.80;;;3.40;;
6442;SDS011;3254;47.372;8.512;2024-02-16T11:23:32;4.27;;;2.70;;
6442;SDS011;3254;47.372;8.512;2024-02-16T11:26:03;3.53;;;3.00;;
6442;SDS011;3254;47.372;8.512;2024-02-16T11:28:32;9.27;;;3.40;;
6442;SDS011;3254;47.372;8.512;2024-02-16T11:30:59;8.47;;;3.30;;
6442;SDS011;3254;47.372;8.512;2024-02-16T11:33:25;5.20;;;3.20;;
6442;SDS011;3254;47.372;8.512;2024-02-16T11:35:53;6.10;;;3.27;;
6442;SDS011;3254;47.372;8.512;2024-02-16T11:38:19;10.30;;;3.83;;
6442;SDS011;3254;47.372;8.512;2024-02-16T11:40:55;4.40;;;3.27;;
6442;SDS011;3254;47.372;8.512;2024-02-16T11:43:25;3.43;;;3.13;;
6442;SDS011;3254;47.372;8.512;2024-02-16T11:45:51;4.63;;;3.70;;
6442;SDS011;3254;47.372;8.512;2024-02-16T11:48:23;3.90;;;3.50;;
6442;SDS011;3254;47.372;8.512;2024-02-16T11:50:58;7.83;;;4.77;;
6442;SDS011;3254;47.372;8.512;2024-02-16T11:53:28;8.80;;;3.50;;
6442;SDS011;3254;47.372;8.512;2024-02-16T11:55:53;4.37;;;3.87;;
6442;SDS011;3254;47.372;8.512;2024-02-16T11:58:19;5.53;;;3.90;;
6442;SDS011;3254;47.372;8.512;2024-02-16T12:00:48;7.17;;;4.97;;
6442;SDS011;3254;47.372;8.512;2024-02-16T12:03:22;4.93;;;4.53;;
6442;SDS011;3254;47.372;8.512;2024-02-16T12:08:20;10.97;;;4.60;;
6442;SDS011;3254;47.372;8.512;2024-02-16T12:10:50;3.73;;;3.43;;
6442;SDS011;3254;47.372;8.512;2024-02-16T12:13:17;7.43;;;4.57;;
6442;SDS011;3254;47.372;8.512;2024-02-16T12:15:43;7.37;;;4.60;;
6442;SDS011;3254;47.372;8.512;2024-02-16T12:18:22;7.20;;;3.90;;
6442;SDS011;3254;47.372;8.512;2024-02-16T12:21:00;3.90;;;3.60;;
6442;SDS011;3254;47.372;8.512;2024-02-16T12:23:30;4.17;;;3.43;;
6442;SDS011;3254;47.372;8.512;2024-02-16T12:25:57;11.23;;;3.50;;
6442;SDS011;3254;47.372;8.512;2024-02-16T12:28:26;5.00;;;3.63;;
6442;SDS011;3254;47.372;8.512;2024-02-16T12:30:59;13.00;;;3.77;;
6442;SDS011;3254;47.372;8.512;2024-02-16T12:33:24;3.90;;;3.60;;
6442;SDS011;3254;47.372;8.512;2024-02-16T12:35:50;3.77;;;2.87;;
6442;SDS011;3254;47.372;8.512;2024-02-16T12:38:16;3.60;;;3.30;;
6442;SDS011;3254;47.372;8.512;2024-02-16T12:40:47;6.47;;;3.30;;
6442;SDS011;3254;47.372;8.512;2024-02-16T12:43:15;4.60;;;3.47;;
6442;SDS011;3254;47.372;8.512;2024-02-16T12:45:41;4.00;;;3.63;;
6442;SDS011;3254;47.372;8.512;2024-02-16T12:48:06;5.73;;;3.17;;
6442;SDS011;3254;47.372;8.512;2024-02-16T12:50:32;3.80;;;3.53;;
6442;SDS011;3254;47.372;8.512;2024-02-16T12:52:58;5.00;;;3.40;;
6442;SDS011;3254;47.372;8.512;2024-02-16T12:55:24;6.43;;;3.90;;
6442;SDS011;3254;47.372;8.512;2024-02-16T12:57:50;9.40;;;3.90;;
6442;SDS011;3254;47.372;8.512;2024-02-16T13:00:16;4.53;;;3.67;;
6442;SDS011;3254;47.372;8.512;2024-02-16T13:02:41;6.67;;;3.70;;
6442;SDS011;3254;47.372;8.512;2024-02-16T13:05:07;11.63;;;3.60;;
6442;SDS011;3254;47.372;8.512;2024-02-16T13:07:33;3.53;;;3.23;;
6442;SDS011;3254;47.372;8.512;2024-02-16T13:09:58;4.00;;;3.53;;
6442;SDS011;3254;47.372;8.512;2024-02-16T13:12:24;8.20;;;4.00;;
6442;SDS011;3254;47.372;8.512;2024-02-16T13:14:49;8.37;;;3.60;;
6442;SDS011;3254;47.372;8.512;2024-02-16T13:17:14;4.77;;;3.00;;
6442;SDS011;3254;47.372;8.512;2024-02-16T13:19:40;13.10;;;3.23;;
6442;SDS011;3254;47.372;8.512;2024-02-16T13:22:05;9.53;;;3.10;;
6442;SDS011;3254;47.372;8.512;2024-02-16T13:24:31;8.07;;;2.67;;
6442;SDS011;3254;47.372;8.512;2024-02-16T13:26:56;4.03;;;2.50;;
6442;SDS011;3254;47.372;8.512;2024-02-16T13:29:21;4.43;;;2.40;;
6442;SDS011;3254;47.372;8.512;2024-02-16T13:31:47;2.80;;;2.37;;
6442;SDS011;3254;47.372;8.512;2024-02-16T13:34:12;4.70;;;2.43;;
6442;SDS011;3254;47.372;8.512;2024-02-16T13:36:39;3.00;;;1.90;;
6442;SDS011;3254;47.372;8.512;2024-02-16T13:39:05;3.97;;;1.83;;
6442;SDS011;3254;47.372;8.512;2024-02-16T13:41:30;3.07;;;2.30;;
6442;SDS011;3254;47.372;8.512;2024-02-16T13:43:55;2.23;;;1.70;;
6442;SDS011;3254;47.372;8.512;2024-02-16T13:46:21;10.13;;;2.30;;
6442;SDS011;3254;47.372;8.512;2024-02-16T13:48:46;4.57;;;1.90;;
6442;SDS011;3254;47.372;8.512;2024-02-16T13:51:12;2.07;;;1.73;;
6442;SDS011;3254;47.372;8.512;2024-02-16T13:53:38;4.87;;;1.53;;
6442;SDS011;3254;47.372;8.512;2024-02-16T13:56:04;4.03;;;1.80;;
6442;SDS011;3254;47.372;8.512;2024-02-16T13:58:31;2.03;;;1.70;;
6442;SDS011;3254;47.372;8.512;2024-02-16T14:00:56;3.77;;;1.40;;
6442;SDS011;3254;47.372;8.512;2024-02-16T14:03:23;7.37;;;2.10;;
6442;SDS011;3254;47.372;8.512;2024-02-16T14:05:48;3.87;;;2.30;;
6442;SDS011;3254;47.372;8.512;2024-02-16T14:08:14;3.00;;;2.60;;
6442;SDS011;3254;47.372;8.512;2024-02-16T14:10:41;4.33;;;3.10;;
6442;SDS011;3254;47.372;8.512;2024-02-16T14:13:06;3.10;;;2.30;;
6442;SDS011;3254;47.372;8.512;2024-02-16T14:15:31;8.63;;;3.00;;
6442;SDS011;3254;47.372;8.512;2024-02-16T14:17:57;5.27;;;2.37;;
6442;SDS011;3254;47.372;8.512;2024-02-16T14:20:23;5.30;;;2.77;;
6442;SDS011;3254;47.372;8.512;2024-02-16T14:22:49;4.60;;;2.80;;
6442;SDS011;3254;47.372;8.512;2024-02-16T14:25:14;6.07;;;3.30;;
6442;SDS011;3254;47.372;8.512;2024-02-16T14:27:40;3.30;;;3.00;;
6442;SDS011;3254;47.372;8.512;2024-02-16T14:30:07;7.07;;;4.83;;
6442;SDS011;3254;47.372;8.512;2024-02-16T14:32:32;6.50;;;3.30;;
6442;SDS011;3254;47.372;8.512;2024-02-16T14:34:58;3.27;;;2.63;;
6442;SDS011;3254;47.372;8.512;2024-02-16T14:37:23;7.40;;;2.73;;
6442;SDS011;3254;47.372;8.512;2024-02-16T14:39:49;6.30;;;2.70;;
6442;SDS011;3254;47.372;8.512;2024-02-16T14:42:14;7.60;;;2.87;;
6442;SDS011;3254;47.372;8.512;2024-02-16T14:44:39;9.30;;;2.43;;
6442;SDS011;3254;47.372;8.512;2024-02-16T14:47:05;4.60;;;2.73;;
6442;SDS011;3254;47.372;8.512;2024-02-16T14:49:30;7.13;;;2.30;;
6442;SDS011;3254;47.372;8.512;2024-02-16T14:51:56;5.13;;;2.30;;
6442;SDS011;3254;47.372;8.512;2024-02-16T14:54:22;14.43;;;3.30;;
6442;SDS011;3254;47.372;8.512;2024-02-16T14:56:50;6.70;;;2.60;;
6442;SDS011;3254;47.372;8.512;2024-02-16T14:59:17;11.23;;;2.70;;
6442;SDS011;3254;47.372;8.512;2024-02-16T15:01:43;8.67;;;2.63;;
6442;SDS011;3254;47.372;8.512;2024-02-16T15:04:09;3.10;;;1.90;;
6442;SDS011;3254;47.372;8.512;2024-02-16T15:06:34;3.80;;;1.83;;